VOE1YH LFBO-LICJ
Flight info
| Callsign | VOE1YH |
|---|---|
| Flight time | N/A |
| Altitude | 39000 |
| Route | FINOT7B/32R FINOT DCT OKSER DCT APRUR DCT NISEK DCT BADUK DCT LAVRU |
| Aircraft | A319/M-SDE3FGHIRWY/LB1 |
Departure
| Time | N/A |
|---|---|
| Airport | Toulouse-Blagnac Airport (LFBO) |
Arrival
| Time | 2026-05-07 19:35 |
|---|---|
| Airport | Falcone–Borsellino Airport (LICJ) |
| Time | Latitude | Longitude | Altitude | Speed | Heading |
|---|---|---|---|---|---|
| 2026-05-07 19:12 | 39.20790 | 11.62130 | 38900 ft | 473 kts | 134° |
| 2026-05-07 19:12 | 39.19005 | 11.65679 | 38904 ft | 473 kts | 134° |
| 2026-05-07 19:12 | 39.16026 | 11.71595 | 38895 ft | 473 kts | 135° |
| 2026-05-07 19:13 | 39.12436 | 11.78699 | 38904 ft | 474 kts | 135° |
| 2026-05-07 19:13 | 39.08229 | 11.87013 | 38913 ft | 474 kts | 135° |
| 2026-05-07 19:14 | 39.04654 | 11.94077 | 38915 ft | 474 kts | 135° |
| 2026-05-07 19:14 | 39.01630 | 12.00029 | 38919 ft | 475 kts | 135° |
| 2026-05-07 19:15 | 38.98006 | 12.07135 | 38644 ft | 487 kts | 136° |
| 2026-05-07 19:15 | 38.96130 | 12.10791 | 38384 ft | 492 kts | 136° |
| 2026-05-07 19:15 | 38.94245 | 12.14472 | 38065 ft | 494 kts | 135° |
| 2026-05-07 19:16 | 38.92364 | 12.18160 | 37784 ft | 496 kts | 135° |
| 2026-05-07 19:16 | 38.90472 | 12.21874 | 37527 ft | 496 kts | 135° |
| 2026-05-07 19:16 | 38.88577 | 12.25584 | 37245 ft | 496 kts | 135° |
| 2026-05-07 19:16 | 38.86675 | 12.29293 | 36392 ft | 500 kts | 134° |
| 2026-05-07 19:17 | 38.84762 | 12.33012 | 35631 ft | 500 kts | 134° |
| 2026-05-07 19:17 | 38.82863 | 12.36703 | 34636 ft | 505 kts | 133° |
| 2026-05-07 19:17 | 38.80937 | 12.40452 | 33917 ft | 502 kts | 133° |
| 2026-05-07 19:17 | 38.79026 | 12.44182 | 32724 ft | 499 kts | 133° |
| 2026-05-07 19:18 | 38.77121 | 12.47891 | 31355 ft | 498 kts | 131° |
| 2026-05-07 19:18 | 38.75229 | 12.51574 | 30176 ft | 493 kts | 130° |
| 2026-05-07 19:18 | 38.73353 | 12.55214 | 29197 ft | 482 kts | 130° |
| 2026-05-07 19:18 | 38.71494 | 12.58739 | 27884 ft | 476 kts | 130° |
| 2026-05-07 19:19 | 38.69620 | 12.62218 | 26593 ft | 473 kts | 130° |
| 2026-05-07 19:19 | 38.67779 | 12.65625 | 25381 ft | 470 kts | 129° |
| 2026-05-07 19:19 | 38.65939 | 12.69059 | 24217 ft | 466 kts | 128° |
| 2026-05-07 19:19 | 38.64135 | 12.72475 | 23027 ft | 462 kts | 128° |
| 2026-05-07 19:20 | 38.62372 | 12.75861 | 21959 ft | 452 kts | 127° |
| 2026-05-07 19:20 | 38.60658 | 12.79182 | 20932 ft | 443 kts | 127° |
| 2026-05-07 19:20 | 38.58988 | 12.82421 | 19955 ft | 435 kts | 127° |
| 2026-05-07 19:20 | 38.57334 | 12.85617 | 19029 ft | 427 kts | 127° |
| 2026-05-07 19:21 | 38.55704 | 12.88748 | 18156 ft | 421 kts | 127° |
| 2026-05-07 19:21 | 38.54094 | 12.91831 | 17194 ft | 414 kts | 127° |
| 2026-05-07 19:21 | 38.52508 | 12.94862 | 16229 ft | 408 kts | 127° |
| 2026-05-07 19:21 | 38.50956 | 12.97816 | 15296 ft | 403 kts | 126° |
| 2026-05-07 19:22 | 38.49404 | 13.00760 | 14363 ft | 397 kts | 126° |
| 2026-05-07 19:22 | 38.47871 | 13.03670 | 13442 ft | 392 kts | 125° |
| 2026-05-07 19:22 | 38.46424 | 13.06514 | 13070 ft | 375 kts | 124° |
| 2026-05-07 19:22 | 38.45034 | 13.09297 | 12812 ft | 370 kts | 124° |
| 2026-05-07 19:23 | 38.43651 | 13.12045 | 12553 ft | 367 kts | 125° |
| 2026-05-07 19:23 | 38.42256 | 13.14764 | 12306 ft | 364 kts | 126° |
| 2026-05-07 19:23 | 38.40865 | 13.17436 | 12053 ft | 361 kts | 126° |
| 2026-05-07 19:23 | 38.39467 | 13.20090 | 11793 ft | 359 kts | 126° |
| 2026-05-07 19:24 | 38.38092 | 13.22686 | 11567 ft | 358 kts | 126° |
| 2026-05-07 19:24 | 38.36734 | 13.25336 | 11315 ft | 358 kts | 124° |
| 2026-05-07 19:24 | 38.35447 | 13.28006 | 11063 ft | 348 kts | 124° |
| 2026-05-07 19:24 | 38.34213 | 13.30610 | 10821 ft | 338 kts | 124° |
| 2026-05-07 19:25 | 38.33022 | 13.33135 | 10589 ft | 328 kts | 124° |
| 2026-05-07 19:25 | 38.31865 | 13.35596 | 10393 ft | 319 kts | 124° |
| 2026-05-07 19:25 | 38.31004 | 13.38145 | 10242 ft | 312 kts | 104° |
| 2026-05-07 19:25 | 38.30860 | 13.40846 | 9932 ft | 312 kts | 83° |
| 2026-05-07 19:26 | 38.31590 | 13.43426 | 9555 ft | 310 kts | 56° |
| 2026-05-07 19:26 | 38.33079 | 13.45352 | 9169 ft | 305 kts | 30° |
| 2026-05-07 19:26 | 38.35027 | 13.46267 | 8804 ft | 297 kts | 4° |
| 2026-05-07 19:26 | 38.37028 | 13.46017 | 8428 ft | 287 kts | 338° |
| 2026-05-07 19:27 | 38.38680 | 13.44691 | 8030 ft | 279 kts | 310° |
| 2026-05-07 19:27 | 38.39631 | 13.42613 | 7664 ft | 267 kts | 284° |
| 2026-05-07 19:27 | 38.40046 | 13.40402 | 7529 ft | 245 kts | 279° |
| 2026-05-07 19:27 | 38.40125 | 13.38332 | 7307 ft | 227 kts | 261° |
| 2026-05-07 19:28 | 38.39919 | 13.36379 | 6874 ft | 224 kts | 261° |
| 2026-05-07 19:28 | 38.39709 | 13.34421 | 6404 ft | 223 kts | 261° |
| 2026-05-07 19:28 | 38.39498 | 13.32472 | 5935 ft | 221 kts | 261° |
| 2026-05-07 19:28 | 38.39286 | 13.30531 | 5445 ft | 221 kts | 261° |
| 2026-05-07 19:29 | 38.39076 | 13.28594 | 4949 ft | 220 kts | 261° |
| 2026-05-07 19:29 | 38.38868 | 13.26667 | 4487 ft | 218 kts | 261° |
| 2026-05-07 19:29 | 38.38661 | 13.24762 | 4023 ft | 216 kts | 260° |
| 2026-05-07 19:29 | 38.38426 | 13.22889 | 3544 ft | 214 kts | 253° |
| 2026-05-07 19:30 | 38.37793 | 13.21226 | 3195 ft | 206 kts | 232° |
| 2026-05-07 19:30 | 38.36787 | 13.20011 | 3020 ft | 202 kts | 214° |
| 2026-05-07 19:30 | 38.35520 | 13.19218 | 3006 ft | 204 kts | 205° |
| 2026-05-07 19:30 | 38.34229 | 13.18485 | 3008 ft | 204 kts | 205° |
| 2026-05-07 19:31 | 38.32949 | 13.17758 | 3013 ft | 194 kts | 205° |
| 2026-05-07 19:31 | 38.31744 | 13.17078 | 2825 ft | 185 kts | 205° |
| 2026-05-07 19:31 | 38.30588 | 13.16425 | 2609 ft | 178 kts | 205° |
| 2026-05-07 19:31 | 38.29479 | 13.15800 | 2390 ft | 171 kts | 205° |
| 2026-05-07 19:32 | 38.28431 | 13.15209 | 2170 ft | 164 kts | 205° |
| 2026-05-07 19:32 | 38.27402 | 13.14629 | 1957 ft | 160 kts | 205° |
| 2026-05-07 19:32 | 38.26402 | 13.14067 | 1754 ft | 155 kts | 205° |
| 2026-05-07 19:32 | 38.25438 | 13.13524 | 1548 ft | 147 kts | 206° |
| 2026-05-07 19:33 | 38.24528 | 13.13012 | 1355 ft | 139 kts | 207° |
| 2026-05-07 19:33 | 38.23667 | 13.12528 | 1174 ft | 133 kts | 208° |
| 2026-05-07 19:33 | 38.22829 | 13.12056 | 1005 ft | 131 kts | 207° |
| 2026-05-07 19:33 | 38.22001 | 13.11591 | 830 ft | 129 kts | 206° |
| 2026-05-07 19:34 | 38.21176 | 13.11128 | 658 ft | 131 kts | 205° |
| 2026-05-07 19:34 | 38.20336 | 13.10649 | 518 ft | 133 kts | 205° |
| 2026-05-07 19:34 | 38.19513 | 13.10195 | 369 ft | 130 kts | 204° |
| 2026-05-07 19:34 | 38.18677 | 13.09719 | 173 ft | 131 kts | 204° |
| 2026-05-07 19:35 | 38.17875 | 13.09270 | 54 ft | 115 kts | 203° |
| 2026-05-07 19:35 | 38.17346 | 13.08972 | 51 ft | 56 kts | 204° |
| 2026-05-07 19:35 | 38.17065 | 13.08813 | 50 ft | 32 kts | 204° |
| 2026-05-07 19:35 | 38.17070 | 13.08703 | 53 ft | 13 kts | 329° |
| 2026-05-07 19:36 | 38.17126 | 13.08656 | 53 ft | 0 kts | 326° |
| 2026-05-07 19:37 | 38.17140 | 13.08643 | 50 ft | 6 kts | 326° |
| 2026-05-07 19:38 | 38.17206 | 13.08611 | 53 ft | 17 kts | 4° |
| 2026-05-07 19:38 | 38.17381 | 13.08681 | 52 ft | 32 kts | 18° |
| 2026-05-07 19:38 | 38.17591 | 13.08806 | 53 ft | 34 kts | 38° |
| 2026-05-07 19:38 | 38.17759 | 13.09003 | 53 ft | 32 kts | 64° |
| 2026-05-07 19:39 | 38.17846 | 13.09268 | 51 ft | 33 kts | 66° |
| 2026-05-07 19:39 | 38.17936 | 13.09534 | 51 ft | 33 kts | 68° |
| 2026-05-07 19:39 | 38.18025 | 13.09803 | 51 ft | 33 kts | 66° |
| 2026-05-07 19:39 | 38.18117 | 13.10075 | 53 ft | 34 kts | 67° |
| 2026-05-07 19:40 | 38.18192 | 13.10299 | 53 ft | 25 kts | 66° |
| 2026-05-07 19:40 | 38.18238 | 13.10370 | 53 ft | 6 kts | 3° |
| 2026-05-07 19:40 | 38.18281 | 13.10345 | 53 ft | 7 kts | 328° |
| 2026-05-07 19:40 | 38.18339 | 13.10312 | 53 ft | 11 kts | 339° |
| 2026-05-07 19:41 | 38.18393 | 13.10270 | 53 ft | 6 kts | 285° |
| 2026-05-07 19:41 | 38.18375 | 13.10215 | 53 ft | 8 kts | 247° |
| 2026-05-07 19:41 | 38.18367 | 13.10189 | 52 ft | 0 kts | 246° |